sensor_id;sensor_type;location;lat;lon;timestamp;P1;durP1;ratioP1;P2;durP2;ratioP2
56239;SDS011;42154;51.992;5.896;2022-10-16T00:01:21;6.18;;;2.95;;
56239;SDS011;42154;51.992;5.896;2022-10-16T00:03:49;7.53;;;3.88;;
56239;SDS011;42154;51.992;5.896;2022-10-16T00:06:16;4.63;;;3.47;;
56239;SDS011;42154;51.992;5.896;2022-10-16T00:08:43;5.00;;;3.00;;
56239;SDS011;42154;51.992;5.896;2022-10-16T00:11:11;5.88;;;3.10;;
56239;SDS011;42154;51.992;5.896;2022-10-16T00:13:39;5.22;;;2.88;;
56239;SDS011;42154;51.992;5.896;2022-10-16T00:16:06;4.03;;;2.60;;
56239;SDS011;42154;51.992;5.896;2022-10-16T00:18:32;5.07;;;3.10;;
56239;SDS011;42154;51.992;5.896;2022-10-16T00:21:05;4.32;;;2.72;;
56239;SDS011;42154;51.992;5.896;2022-10-16T00:23:35;5.85;;;2.75;;
56239;SDS011;42154;51.992;5.896;2022-10-16T00:26:02;5.28;;;2.33;;
56239;SDS011;42154;51.992;5.896;2022-10-16T00:28:33;4.43;;;2.70;;
56239;SDS011;42154;51.992;5.896;2022-10-16T00:31:02;5.40;;;2.55;;
56239;SDS011;42154;51.992;5.896;2022-10-16T00:33:33;6.13;;;2.85;;
56239;SDS011;42154;51.992;5.896;2022-10-16T00:36:00;3.20;;;2.17;;
56239;SDS011;42154;51.992;5.896;2022-10-16T00:38:27;5.32;;;2.38;;
56239;SDS011;42154;51.992;5.896;2022-10-16T00:40:52;4.72;;;2.17;;
56239;SDS011;42154;51.992;5.896;2022-10-16T00:46:05;6.15;;;2.53;;
56239;SDS011;42154;51.992;5.896;2022-10-16T00:51:31;5.78;;;2.75;;
56239;SDS011;42154;51.992;5.896;2022-10-16T00:54:03;6.50;;;2.40;;
56239;SDS011;42154;51.992;5.896;2022-10-16T00:56:36;4.95;;;2.80;;
56239;SDS011;42154;51.992;5.896;2022-10-16T00:59:03;3.60;;;2.50;;
56239;SDS011;42154;51.992;5.896;2022-10-16T01:01:32;7.03;;;2.75;;
56239;SDS011;42154;51.992;5.896;2022-10-16T01:03:58;4.10;;;2.30;;
56239;SDS011;42154;51.992;5.896;2022-10-16T01:15:11;2.33;;;1.80;;
56239;SDS011;42154;51.992;5.896;2022-10-16T01:21:01;3.60;;;2.35;;
56239;SDS011;42154;51.992;5.896;2022-10-16T01:29:09;4.47;;;2.40;;
56239;SDS011;42154;51.992;5.896;2022-10-16T01:31:43;3.00;;;2.20;;
56239;SDS011;42154;51.992;5.896;2022-10-16T01:34:17;4.05;;;2.20;;
56239;SDS011;42154;51.992;5.896;2022-10-16T01:36:50;4.25;;;2.30;;
56239;SDS011;42154;51.992;5.896;2022-10-16T01:39:20;4.80;;;2.42;;
56239;SDS011;42154;51.992;5.896;2022-10-16T01:41:52;4.70;;;2.35;;
56239;SDS011;42154;51.992;5.896;2022-10-16T01:44:28;4.47;;;2.40;;
56239;SDS011;42154;51.992;5.896;2022-10-16T01:46:56;4.70;;;2.45;;
56239;SDS011;42154;51.992;5.896;2022-10-16T01:49:23;3.95;;;2.83;;
56239;SDS011;42154;51.992;5.896;2022-10-16T01:51:52;4.10;;;2.70;;
56239;SDS011;42154;51.992;5.896;2022-10-16T01:54:20;4.20;;;2.72;;
56239;SDS011;42154;51.992;5.896;2022-10-16T01:56:50;3.90;;;2.67;;
56239;SDS011;42154;51.992;5.896;2022-10-16T01:59:17;3.80;;;2.40;;
56239;SDS011;42154;51.992;5.896;2022-10-16T02:01:49;4.13;;;2.58;;
56239;SDS011;42154;51.992;5.896;2022-10-16T02:07:02;3.72;;;2.95;;
56239;SDS011;42154;51.992;5.896;2022-10-16T02:09:29;5.63;;;2.88;;
56239;SDS011;42154;51.992;5.896;2022-10-16T02:11:57;6.28;;;3.22;;
56239;SDS011;42154;51.992;5.896;2022-10-16T02:14:28;4.73;;;3.03;;
56239;SDS011;42154;51.992;5.896;2022-10-16T02:16:54;4.93;;;2.58;;
56239;SDS011;42154;51.992;5.896;2022-10-16T02:19:20;3.10;;;2.65;;
56239;SDS011;42154;51.992;5.896;2022-10-16T02:21:57;4.15;;;2.40;;
56239;SDS011;42154;51.992;5.896;2022-10-16T02:29:25;2.42;;;1.98;;
56239;SDS011;42154;51.992;5.896;2022-10-16T02:31:56;4.63;;;2.63;;
56239;SDS011;42154;51.992;5.896;2022-10-16T02:34:25;2.85;;;2.55;;
56239;SDS011;42154;51.992;5.896;2022-10-16T02:36:53;2.67;;;1.98;;
56239;SDS011;42154;51.992;5.896;2022-10-16T02:39:20;4.32;;;2.38;;
56239;SDS011;42154;51.992;5.896;2022-10-16T02:41:47;3.95;;;2.50;;
56239;SDS011;42154;51.992;5.896;2022-10-16T02:44:13;4.10;;;2.15;;
56239;SDS011;42154;51.992;5.896;2022-10-16T02:46:38;5.30;;;2.55;;
56239;SDS011;42154;51.992;5.896;2022-10-16T02:49:04;4.00;;;2.17;;
56239;SDS011;42154;51.992;5.896;2022-10-16T02:51:30;4.03;;;2.17;;
56239;SDS011;42154;51.992;5.896;2022-10-16T02:53:56;2.28;;;1.85;;
56239;SDS011;42154;51.992;5.896;2022-10-16T02:56:21;3.58;;;1.60;;
56239;SDS011;42154;51.992;5.896;2022-10-16T02:58:47;2.92;;;1.90;;
56239;SDS011;42154;51.992;5.896;2022-10-16T03:01:13;3.85;;;2.13;;
56239;SDS011;42154;51.992;5.896;2022-10-16T03:03:41;4.13;;;2.60;;
56239;SDS011;42154;51.992;5.896;2022-10-16T03:06:07;3.25;;;2.20;;
56239;SDS011;42154;51.992;5.896;2022-10-16T03:08:33;3.60;;;2.42;;
56239;SDS011;42154;51.992;5.896;2022-10-16T03:10:59;3.60;;;2.05;;
56239;SDS011;42154;51.992;5.896;2022-10-16T03:13:27;2.80;;;1.90;;
56239;SDS011;42154;51.992;5.896;2022-10-16T03:15:53;2.70;;;2.30;;
56239;SDS011;42154;51.992;5.896;2022-10-16T03:18:18;2.55;;;2.05;;
56239;SDS011;42154;51.992;5.896;2022-10-16T03:20:44;2.88;;;2.15;;
56239;SDS011;42154;51.992;5.896;2022-10-16T03:23:10;3.30;;;2.30;;
56239;SDS011;42154;51.992;5.896;2022-10-16T03:25:36;3.85;;;2.00;;
56239;SDS011;42154;51.992;5.896;2022-10-16T03:28:01;2.70;;;2.28;;
56239;SDS011;42154;51.992;5.896;2022-10-16T03:30:28;3.25;;;1.70;;
56239;SDS011;42154;51.992;5.896;2022-10-16T03:32:54;3.70;;;1.98;;
56239;SDS011;42154;51.992;5.896;2022-10-16T03:35:20;3.15;;;2.05;;
56239;SDS011;42154;51.992;5.896;2022-10-16T03:37:47;3.08;;;1.98;;
56239;SDS011;42154;51.992;5.896;2022-10-16T03:40:13;3.80;;;2.15;;
56239;SDS011;42154;51.992;5.896;2022-10-16T03:42:39;6.10;;;2.50;;
56239;SDS011;42154;51.992;5.896;2022-10-16T03:45:05;2.58;;;1.85;;
56239;SDS011;42154;51.992;5.896;2022-10-16T03:47:31;4.95;;;2.55;;
56239;SDS011;42154;51.992;5.896;2022-10-16T03:49:58;3.45;;;2.20;;
56239;SDS011;42154;51.992;5.896;2022-10-16T03:52:24;4.55;;;2.00;;
56239;SDS011;42154;51.992;5.896;2022-10-16T03:54:50;3.70;;;2.13;;
56239;SDS011;42154;51.992;5.896;2022-10-16T03:57:17;4.28;;;2.08;;
56239;SDS011;42154;51.992;5.896;2022-10-16T03:59:42;3.00;;;1.88;;
56239;SDS011;42154;51.992;5.896;2022-10-16T04:02:08;3.42;;;2.10;;
56239;SDS011;42154;51.992;5.896;2022-10-16T04:04:35;4.03;;;1.90;;
56239;SDS011;42154;51.992;5.896;2022-10-16T04:07:00;3.78;;;2.08;;
56239;SDS011;42154;51.992;5.896;2022-10-16T04:09:26;3.13;;;1.95;;
56239;SDS011;42154;51.992;5.896;2022-10-16T04:11:52;3.55;;;1.85;;
56239;SDS011;42154;51.992;5.896;2022-10-16T04:14:18;3.25;;;1.83;;
56239;SDS011;42154;51.992;5.896;2022-10-16T04:16:44;3.17;;;1.65;;
56239;SDS011;42154;51.992;5.896;2022-10-16T04:19:10;3.22;;;1.70;;
56239;SDS011;42154;51.992;5.896;2022-10-16T04:21:36;1.98;;;1.52;;
56239;SDS011;42154;51.992;5.896;2022-10-16T04:24:02;3.95;;;1.70;;
56239;SDS011;42154;51.992;5.896;2022-10-16T04:26:28;2.50;;;1.58;;
56239;SDS011;42154;51.992;5.896;2022-10-16T04:28:54;3.95;;;1.73;;
56239;SDS011;42154;51.992;5.896;2022-10-16T04:31:19;3.35;;;1.98;;
56239;SDS011;42154;51.992;5.896;2022-10-16T04:33:45;4.70;;;2.20;;
56239;SDS011;42154;51.992;5.896;2022-10-16T04:36:11;3.75;;;2.30;;
56239;SDS011;42154;51.992;5.896;2022-10-16T04:38:37;2.83;;;2.05;;
56239;SDS011;42154;51.992;5.896;2022-10-16T04:41:04;3.17;;;1.88;;
56239;SDS011;42154;51.992;5.896;2022-10-16T04:43:31;5.00;;;1.80;;
56239;SDS011;42154;51.992;5.896;2022-10-16T04:45:57;3.03;;;1.50;;
56239;SDS011;42154;51.992;5.896;2022-10-16T04:48:22;4.40;;;2.20;;
56239;SDS011;42154;51.992;5.896;2022-10-16T04:50:48;2.53;;;1.70;;
56239;SDS011;42154;51.992;5.896;2022-10-16T04:53:14;3.58;;;1.73;;
56239;SDS011;42154;51.992;5.896;2022-10-16T04:55:41;3.60;;;2.10;;
56239;SDS011;42154;51.992;5.896;2022-10-16T04:58:07;3.30;;;1.77;;
56239;SDS011;42154;51.992;5.896;2022-10-16T05:00:33;2.80;;;2.00;;
56239;SDS011;42154;51.992;5.896;2022-10-16T05:02:59;3.47;;;2.00;;
56239;SDS011;42154;51.992;5.896;2022-10-16T05:05:26;2.42;;;1.90;;
56239;SDS011;42154;51.992;5.896;2022-10-16T05:07:52;3.67;;;2.03;;
56239;SDS011;42154;51.992;5.896;2022-10-16T05:10:18;2.25;;;1.80;;
56239;SDS011;42154;51.992;5.896;2022-10-16T05:12:46;3.78;;;2.25;;
56239;SDS011;42154;51.992;5.896;2022-10-16T05:15:12;2.85;;;2.20;;
56239;SDS011;42154;51.992;5.896;2022-10-16T05:17:37;2.00;;;1.80;;
56239;SDS011;42154;51.992;5.896;2022-10-16T05:20:03;3.28;;;2.10;;
56239;SDS011;42154;51.992;5.896;2022-10-16T05:22:29;3.22;;;2.15;;
56239;SDS011;42154;51.992;5.896;2022-10-16T05:24:55;2.25;;;1.48;;
56239;SDS011;42154;51.992;5.896;2022-10-16T05:27:21;3.28;;;1.80;;
56239;SDS011;42154;51.992;5.896;2022-10-16T05:29:47;3.20;;;1.83;;
56239;SDS011;42154;51.992;5.896;2022-10-16T05:32:14;4.40;;;1.70;;
56239;SDS011;42154;51.992;5.896;2022-10-16T05:34:41;4.05;;;1.90;;
56239;SDS011;42154;51.992;5.896;2022-10-16T05:37:07;2.22;;;1.50;;
56239;SDS011;42154;51.992;5.896;2022-10-16T05:39:33;3.13;;;1.92;;
56239;SDS011;42154;51.992;5.896;2022-10-16T05:41:59;2.78;;;1.65;;
56239;SDS011;42154;51.992;5.896;2022-10-16T05:44:25;2.65;;;1.85;;
56239;SDS011;42154;51.992;5.896;2022-10-16T05:46:50;3.33;;;2.10;;
56239;SDS011;42154;51.992;5.896;2022-10-16T05:49:16;2.63;;;1.90;;
56239;SDS011;42154;51.992;5.896;2022-10-16T05:51:42;3.15;;;2.42;;
56239;SDS011;42154;51.992;5.896;2022-10-16T05:54:08;2.95;;;1.80;;
56239;SDS011;42154;51.992;5.896;2022-10-16T05:56:34;2.70;;;1.85;;
56239;SDS011;42154;51.992;5.896;2022-10-16T05:58:59;3.97;;;2.00;;
56239;SDS011;42154;51.992;5.896;2022-10-16T06:01:25;3.38;;;2.22;;
56239;SDS011;42154;51.992;5.896;2022-10-16T06:03:51;4.88;;;2.53;;
56239;SDS011;42154;51.992;5.896;2022-10-16T06:06:19;2.75;;;1.73;;
56239;SDS011;42154;51.992;5.896;2022-10-16T06:08:46;3.90;;;2.20;;
56239;SDS011;42154;51.992;5.896;2022-10-16T06:11:14;2.75;;;1.67;;
56239;SDS011;42154;51.992;5.896;2022-10-16T06:13:41;4.65;;;2.00;;
56239;SDS011;42154;51.992;5.896;2022-10-16T06:16:08;2.78;;;2.00;;
56239;SDS011;42154;51.992;5.896;2022-10-16T06:18:35;2.55;;;1.45;;
56239;SDS011;42154;51.992;5.896;2022-10-16T06:21:06;4.57;;;2.15;;
56239;SDS011;42154;51.992;5.896;2022-10-16T06:23:33;2.17;;;1.60;;
56239;SDS011;42154;51.992;5.896;2022-10-16T06:26:09;2.92;;;2.20;;
56239;SDS011;42154;51.992;5.896;2022-10-16T06:28:36;2.58;;;1.88;;
56239;SDS011;42154;51.992;5.896;2022-10-16T06:31:03;2.55;;;1.90;;
56239;SDS011;42154;51.992;5.896;2022-10-16T06:33:29;4.10;;;2.20;;
56239;SDS011;42154;51.992;5.896;2022-10-16T06:36:03;3.63;;;2.20;;
56239;SDS011;42154;51.992;5.896;2022-10-16T06:38:30;3.25;;;2.30;;
56239;SDS011;42154;51.992;5.896;2022-10-16T06:40:56;4.68;;;2.35;;
56239;SDS011;42154;51.992;5.896;2022-10-16T06:43:22;3.35;;;2.08;;
56239;SDS011;42154;51.992;5.896;2022-10-16T06:45:54;2.65;;;1.80;;
56239;SDS011;42154;51.992;5.896;2022-10-16T06:48:22;5.05;;;2.10;;
56239;SDS011;42154;51.992;5.896;2022-10-16T06:50:58;2.80;;;2.22;;
56239;SDS011;42154;51.992;5.896;2022-10-16T06:53:26;3.75;;;2.20;;
56239;SDS011;42154;51.992;5.896;2022-10-16T06:55:54;2.80;;;2.50;;
56239;SDS011;42154;51.992;5.896;2022-10-16T06:58:20;2.60;;;2.10;;
56239;SDS011;42154;51.992;5.896;2022-10-16T07:00:47;3.28;;;2.00;;
56239;SDS011;42154;51.992;5.896;2022-10-16T07:03:12;3.88;;;1.83;;
56239;SDS011;42154;51.992;5.896;2022-10-16T07:05:39;5.55;;;2.40;;
56239;SDS011;42154;51.992;5.896;2022-10-16T07:08:06;5.47;;;2.72;;
56239;SDS011;42154;51.992;5.896;2022-10-16T07:10:32;4.70;;;2.15;;
56239;SDS011;42154;51.992;5.896;2022-10-16T07:12:58;4.57;;;2.58;;
56239;SDS011;42154;51.992;5.896;2022-10-16T07:15:24;3.72;;;1.92;;
56239;SDS011;42154;51.992;5.896;2022-10-16T07:17:51;2.72;;;1.60;;
56239;SDS011;42154;51.992;5.896;2022-10-16T07:20:17;5.93;;;2.40;;
56239;SDS011;42154;51.992;5.896;2022-10-16T07:22:43;4.38;;;2.30;;
56239;SDS011;42154;51.992;5.896;2022-10-16T07:25:09;3.25;;;2.42;;
56239;SDS011;42154;51.992;5.896;2022-10-16T07:27:35;4.78;;;2.20;;
56239;SDS011;42154;51.992;5.896;2022-10-16T07:30:00;4.30;;;2.40;;
56239;SDS011;42154;51.992;5.896;2022-10-16T07:32:26;2.92;;;2.03;;
56239;SDS011;42154;51.992;5.896;2022-10-16T07:34:52;2.63;;;1.75;;
56239;SDS011;42154;51.992;5.896;2022-10-16T07:37:18;2.53;;;2.00;;
56239;SDS011;42154;51.992;5.896;2022-10-16T07:39:44;4.60;;;1.92;;
56239;SDS011;42154;51.992;5.896;2022-10-16T07:42:10;4.53;;;1.90;;
56239;SDS011;42154;51.992;5.896;2022-10-16T07:44:35;3.88;;;2.00;;
56239;SDS011;42154;51.992;5.896;2022-10-16T07:47:01;3.88;;;2.33;;
56239;SDS011;42154;51.992;5.896;2022-10-16T07:49:27;3.80;;;1.83;;
56239;SDS011;42154;51.992;5.896;2022-10-16T07:51:53;2.70;;;1.60;;
56239;SDS011;42154;51.992;5.896;2022-10-16T07:54:19;3.50;;;2.17;;
56239;SDS011;42154;51.992;5.896;2022-10-16T07:56:45;3.70;;;2.10;;
56239;SDS011;42154;51.992;5.896;2022-10-16T07:59:11;4.95;;;2.88;;
56239;SDS011;42154;51.992;5.896;2022-10-16T08:01:36;4.05;;;1.70;;
56239;SDS011;42154;51.992;5.896;2022-10-16T08:04:02;4.78;;;1.95;;
56239;SDS011;42154;51.992;5.896;2022-10-16T08:06:28;4.95;;;2.17;;
56239;SDS011;42154;51.992;5.896;2022-10-16T08:08:55;3.58;;;2.08;;
56239;SDS011;42154;51.992;5.896;2022-10-16T08:11:21;3.38;;;1.75;;
56239;SDS011;42154;51.992;5.896;2022-10-16T08:13:47;6.18;;;2.72;;
56239;SDS011;42154;51.992;5.896;2022-10-16T08:16:13;5.28;;;2.45;;
56239;SDS011;42154;51.992;5.896;2022-10-16T08:18:40;6.88;;;2.70;;
56239;SDS011;42154;51.992;5.896;2022-10-16T08:21:06;3.47;;;1.67;;
56239;SDS011;42154;51.992;5.896;2022-10-16T08:23:37;3.08;;;1.80;;
56239;SDS011;42154;51.992;5.896;2022-10-16T08:26:03;4.15;;;2.00;;
56239;SDS011;42154;51.992;5.896;2022-10-16T08:28:31;3.80;;;2.08;;
56239;SDS011;42154;51.992;5.896;2022-10-16T08:31:04;6.30;;;2.20;;
56239;SDS011;42154;51.992;5.896;2022-10-16T08:33:31;2.60;;;1.42;;
56239;SDS011;42154;51.992;5.896;2022-10-16T08:35:56;6.13;;;2.40;;
56239;SDS011;42154;51.992;5.896;2022-10-16T08:38:22;3.63;;;1.75;;
56239;SDS011;42154;51.992;5.896;2022-10-16T08:40:48;3.75;;;2.03;;
56239;SDS011;42154;51.992;5.896;2022-10-16T08:43:18;3.35;;;2.03;;
56239;SDS011;42154;51.992;5.896;2022-10-16T08:46:09;2.75;;;1.88;;
56239;SDS011;42154;51.992;5.896;2022-10-16T08:48:51;4.18;;;2.00;;
56239;SDS011;42154;51.992;5.896;2022-10-16T08:54:08;7.90;;;2.55;;
56239;SDS011;42154;51.992;5.896;2022-10-16T08:59:26;4.35;;;2.25;;
56239;SDS011;42154;51.992;5.896;2022-10-16T09:01:52;7.20;;;2.42;;
56239;SDS011;42154;51.992;5.896;2022-10-16T09:07:11;9.23;;;3.05;;
56239;SDS011;42154;51.992;5.896;2022-10-16T09:17:56;4.10;;;2.05;;
56239;SDS011;42154;51.992;5.896;2022-10-16T09:23:36;7.60;;;2.03;;
56239;SDS011;42154;51.992;5.896;2022-10-16T09:26:02;5.22;;;1.58;;
56239;SDS011;42154;51.992;5.896;2022-10-16T09:28:30;7.28;;;2.30;;
56239;SDS011;42154;51.992;5.896;2022-10-16T09:30:56;6.07;;;1.75;;
56239;SDS011;42154;51.992;5.896;2022-10-16T09:33:23;4.10;;;1.70;;
56239;SDS011;42154;51.992;5.896;2022-10-16T09:35:54;6.30;;;1.75;;
56239;SDS011;42154;51.992;5.896;2022-10-16T09:40:54;6.38;;;1.95;;
56239;SDS011;42154;51.992;5.896;2022-10-16T09:45:54;5.90;;;1.77;;
56239;SDS011;42154;51.992;5.896;2022-10-16T09:48:25;4.97;;;1.85;;
56239;SDS011;42154;51.992;5.896;2022-10-16T09:53:48;7.82;;;1.85;;
56239;SDS011;42154;51.992;5.896;2022-10-16T09:56:37;5.10;;;1.80;;
56239;SDS011;42154;51.992;5.896;2022-10-16T09:59:13;9.18;;;1.75;;
56239;SDS011;42154;51.992;5.896;2022-10-16T10:01:42;5.65;;;1.95;;
56239;SDS011;42154;51.992;5.896;2022-10-16T10:04:08;8.52;;;1.90;;
56239;SDS011;42154;51.992;5.896;2022-10-16T10:06:36;5.93;;;1.77;;
56239;SDS011;42154;51.992;5.896;2022-10-16T10:09:23;8.90;;;2.08;;
56239;SDS011;42154;51.992;5.896;2022-10-16T10:11:55;8.07;;;2.17;;
56239;SDS011;42154;51.992;5.896;2022-10-16T10:19:37;11.05;;;2.20;;
56239;SDS011;42154;51.992;5.896;2022-10-16T10:22:20;7.32;;;2.17;;
56239;SDS011;42154;51.992;5.896;2022-10-16T10:25:34;9.48;;;2.20;;
56239;SDS011;42154;51.992;5.896;2022-10-16T10:38:24;8.05;;;2.15;;
56239;SDS011;42154;51.992;5.896;2022-10-16T10:43:52;6.95;;;1.70;;
56239;SDS011;42154;51.992;5.896;2022-10-16T10:49:25;7.78;;;2.13;;
56239;SDS011;42154;51.992;5.896;2022-10-16T10:55:02;10.43;;;2.10;;
56239;SDS011;42154;51.992;5.896;2022-10-16T11:06:24;8.98;;;1.73;;
56239;SDS011;42154;51.992;5.896;2022-10-16T11:11:34;6.70;;;1.38;;
56239;SDS011;42154;51.992;5.896;2022-10-16T11:16:54;6.70;;;1.70;;
56239;SDS011;42154;51.992;5.896;2022-10-16T11:19:35;9.27;;;1.73;;
56239;SDS011;42154;51.992;5.896;2022-10-16T11:22:22;7.53;;;2.00;;
56239;SDS011;42154;51.992;5.896;2022-10-16T11:27:35;5.50;;;1.40;;
56239;SDS011;42154;51.992;5.896;2022-10-16T11:30:03;9.25;;;1.83;;
56239;SDS011;42154;51.992;5.896;2022-10-16T11:40:54;7.97;;;2.28;;
56239;SDS011;42154;51.992;5.896;2022-10-16T11:43:43;7.60;;;1.23;;
56239;SDS011;42154;51.992;5.896;2022-10-16T11:46:19;9.32;;;1.80;;
56239;SDS011;42154;51.992;5.896;2022-10-16T11:57:21;9.40;;;1.40;;
56239;SDS011;42154;51.992;5.896;2022-10-16T12:02:32;7.00;;;1.50;;
56239;SDS011;42154;51.992;5.896;2022-10-16T12:07:50;6.47;;;1.45;;
56239;SDS011;42154;51.992;5.896;2022-10-16T12:10:34;6.80;;;1.20;;
56239;SDS011;42154;51.992;5.896;2022-10-16T12:13:48;8.07;;;1.50;;
56239;SDS011;42154;51.992;5.896;2022-10-16T12:16:03;8.75;;;1.65;;
56239;SDS011;42154;51.992;5.896;2022-10-16T12:18:46;5.10;;;1.15;;
56239;SDS011;42154;51.992;5.896;2022-10-16T12:21:12;5.60;;;1.15;;
56239;SDS011;42154;51.992;5.896;2022-10-16T12:23:48;6.70;;;1.85;;
56239;SDS011;42154;51.992;5.896;2022-10-16T12:26:23;6.20;;;1.23;;
56239;SDS011;42154;51.992;5.896;2022-10-16T12:28:50;8.65;;;2.03;;
56239;SDS011;42154;51.992;5.896;2022-10-16T12:31:16;6.22;;;1.67;;
56239;SDS011;42154;51.992;5.896;2022-10-16T12:33:51;8.38;;;1.48;;
56239;SDS011;42154;51.992;5.896;2022-10-16T12:36:34;9.95;;;2.33;;
56239;SDS011;42154;51.992;5.896;2022-10-16T12:39:00;6.20;;;1.55;;
56239;SDS011;42154;51.992;5.896;2022-10-16T12:41:28;5.70;;;1.27;;
56239;SDS011;42154;51.992;5.896;2022-10-16T12:43:54;6.75;;;1.35;;
56239;SDS011;42154;51.992;5.896;2022-10-16T12:46:33;6.20;;;1.35;;
56239;SDS011;42154;51.992;5.896;2022-10-16T12:49:19;6.90;;;1.98;;
56239;SDS011;42154;51.992;5.896;2022-10-16T12:51:49;6.50;;;1.58;;
56239;SDS011;42154;51.992;5.896;2022-10-16T12:54:19;9.18;;;1.70;;
56239;SDS011;42154;51.992;5.896;2022-10-16T13:05:35;9.05;;;1.63;;
56239;SDS011;42154;51.992;5.896;2022-10-16T13:08:20;6.22;;;1.67;;
56239;SDS011;42154;51.992;5.896;2022-10-16T13:17:00;8.38;;;1.70;;
56239;SDS011;42154;51.992;5.896;2022-10-16T13:27:43;4.45;;;1.30;;
56239;SDS011;42154;51.992;5.896;2022-10-16T13:30:16;8.00;;;1.27;;
56239;SDS011;42154;51.992;5.896;2022-10-16T13:32:45;2.63;;;0.73;;
56239;SDS011;42154;51.992;5.896;2022-10-16T13:35:18;8.25;;;1.48;;
56239;SDS011;42154;51.992;5.896;2022-10-16T13:37:46;7.38;;;1.90;;
56239;SDS011;42154;51.992;5.896;2022-10-16T13:40:22;6.10;;;1.45;;
56239;SDS011;42154;51.992;5.896;2022-10-16T13:42:52;8.20;;;1.83;;
56239;SDS011;42154;51.992;5.896;2022-10-16T13:45:19;4.63;;;1.40;;
56239;SDS011;42154;51.992;5.896;2022-10-16T13:47:46;5.20;;;1.30;;
56239;SDS011;42154;51.992;5.896;2022-10-16T13:50:14;6.45;;;1.27;;
56239;SDS011;42154;51.992;5.896;2022-10-16T13:52:42;7.18;;;1.63;;
56239;SDS011;42154;51.992;5.896;2022-10-16T13:55:12;9.00;;;1.63;;
56239;SDS011;42154;51.992;5.896;2022-10-16T13:57:42;7.40;;;1.50;;
56239;SDS011;42154;51.992;5.896;2022-10-16T14:00:24;6.47;;;1.40;;
56239;SDS011;42154;51.992;5.896;2022-10-16T14:03:02;8.27;;;1.45;;
56239;SDS011;42154;51.992;5.896;2022-10-16T14:05:30;6.65;;;1.65;;
56239;SDS011;42154;51.992;5.896;2022-10-16T14:07:57;8.77;;;1.80;;
56239;SDS011;42154;51.992;5.896;2022-10-16T14:10:27;5.90;;;1.00;;
56239;SDS011;42154;51.992;5.896;2022-10-16T14:12:57;5.60;;;1.52;;
56239;SDS011;42154;51.992;5.896;2022-10-16T14:15:24;5.40;;;1.27;;
56239;SDS011;42154;51.992;5.896;2022-10-16T14:17:50;4.57;;;1.40;;
56239;SDS011;42154;51.992;5.896;2022-10-16T14:20:17;7.97;;;1.80;;
56239;SDS011;42154;51.992;5.896;2022-10-16T14:22:46;5.15;;;1.20;;
56239;SDS011;42154;51.992;5.896;2022-10-16T14:30:29;8.07;;;1.40;;
56239;SDS011;42154;51.992;5.896;2022-10-16T14:32:57;4.43;;;1.38;;
56239;SDS011;42154;51.992;5.896;2022-10-16T14:35:36;4.07;;;0.90;;
56239;SDS011;42154;51.992;5.896;2022-10-16T14:38:04;7.35;;;1.67;;
56239;SDS011;42154;51.992;5.896;2022-10-16T14:40:32;6.15;;;1.52;;
56239;SDS011;42154;51.992;5.896;2022-10-16T14:43:03;10.40;;;2.15;;
56239;SDS011;42154;51.992;5.896;2022-10-16T14:45:31;8.98;;;1.80;;
56239;SDS011;42154;51.992;5.896;2022-10-16T14:48:03;6.90;;;1.60;;
56239;SDS011;42154;51.992;5.896;2022-10-16T14:50:39;5.15;;;1.13;;
56239;SDS011;42154;51.992;5.896;2022-10-16T14:53:10;4.82;;;1.30;;
56239;SDS011;42154;51.992;5.896;2022-10-16T14:55:37;4.68;;;1.20;;
56239;SDS011;42154;51.992;5.896;2022-10-16T14:58:04;7.53;;;1.58;;
56239;SDS011;42154;51.992;5.896;2022-10-16T15:00:30;3.38;;;1.10;;
56239;SDS011;42154;51.992;5.896;2022-10-16T15:02:55;7.50;;;1.20;;
56239;SDS011;42154;51.992;5.896;2022-10-16T15:05:22;5.97;;;1.00;;
56239;SDS011;42154;51.992;5.896;2022-10-16T15:07:51;4.38;;;1.10;;
56239;SDS011;42154;51.992;5.896;2022-10-16T15:10:18;7.72;;;2.45;;
56239;SDS011;42154;51.992;5.896;2022-10-16T15:12:46;11.57;;;2.17;;
56239;SDS011;42154;51.992;5.896;2022-10-16T15:15:23;9.48;;;2.50;;
56239;SDS011;42154;51.992;5.896;2022-10-16T15:18:01;9.77;;;2.30;;
56239;SDS011;42154;51.992;5.896;2022-10-16T15:20:28;4.35;;;1.73;;
56239;SDS011;42154;51.992;5.896;2022-10-16T15:23:21;7.70;;;2.55;;
56239;SDS011;42154;51.992;5.896;2022-10-16T15:25:53;10.48;;;2.42;;
56239;SDS011;42154;51.992;5.896;2022-10-16T15:28:20;6.60;;;1.95;;
56239;SDS011;42154;51.992;5.896;2022-10-16T15:30:49;8.48;;;1.98;;
56239;SDS011;42154;51.992;5.896;2022-10-16T15:33:22;5.53;;;1.60;;
56239;SDS011;42154;51.992;5.896;2022-10-16T15:35:52;5.88;;;1.48;;
56239;SDS011;42154;51.992;5.896;2022-10-16T15:38:19;5.18;;;1.48;;
56239;SDS011;42154;51.992;5.896;2022-10-16T15:40:46;6.90;;;1.40;;
56239;SDS011;42154;51.992;5.896;2022-10-16T15:43:12;7.55;;;1.55;;
56239;SDS011;42154;51.992;5.896;2022-10-16T15:45:38;9.40;;;2.08;;
56239;SDS011;42154;51.992;5.896;2022-10-16T15:48:04;4.07;;;1.27;;
56239;SDS011;42154;51.992;5.896;2022-10-16T15:50:30;4.97;;;1.20;;
56239;SDS011;42154;51.992;5.896;2022-10-16T15:52:57;6.03;;;1.50;;
56239;SDS011;42154;51.992;5.896;2022-10-16T15:55:23;7.43;;;1.60;;
56239;SDS011;42154;51.992;5.896;2022-10-16T15:57:49;8.27;;;1.92;;
56239;SDS011;42154;51.992;5.896;2022-10-16T16:00:17;6.97;;;1.60;;
56239;SDS011;42154;51.992;5.896;2022-10-16T16:02:49;7.25;;;1.90;;
56239;SDS011;42154;51.992;5.896;2022-10-16T16:05:17;5.57;;;1.67;;
56239;SDS011;42154;51.992;5.896;2022-10-16T16:07:43;5.28;;;1.77;;
56239;SDS011;42154;51.992;5.896;2022-10-16T16:10:09;9.43;;;2.35;;
56239;SDS011;42154;51.992;5.896;2022-10-16T16:12:36;6.13;;;2.33;;
56239;SDS011;42154;51.992;5.896;2022-10-16T16:15:02;11.93;;;1.92;;
56239;SDS011;42154;51.992;5.896;2022-10-16T16:17:30;5.43;;;2.38;;
56239;SDS011;42154;51.992;5.896;2022-10-16T16:19:57;6.65;;;2.08;;
56239;SDS011;42154;51.992;5.896;2022-10-16T16:22:23;9.50;;;2.53;;
56239;SDS011;42154;51.992;5.896;2022-10-16T16:24:49;9.13;;;1.95;;
56239;SDS011;42154;51.992;5.896;2022-10-16T16:27:14;14.48;;;4.07;;
56239;SDS011;42154;51.992;5.896;2022-10-16T16:29:40;11.77;;;4.40;;
56239;SDS011;42154;51.992;5.896;2022-10-16T16:32:06;10.30;;;4.00;;
56239;SDS011;42154;51.992;5.896;2022-10-16T16:34:32;9.55;;;3.38;;
56239;SDS011;42154;51.992;5.896;2022-10-16T16:36:58;6.70;;;3.15;;
56239;SDS011;42154;51.992;5.896;2022-10-16T16:39:24;4.40;;;2.28;;
56239;SDS011;42154;51.992;5.896;2022-10-16T16:41:50;11.73;;;3.20;;
56239;SDS011;42154;51.992;5.896;2022-10-16T16:44:16;7.20;;;2.50;;
56239;SDS011;42154;51.992;5.896;2022-10-16T16:46:42;9.73;;;3.40;;
56239;SDS011;42154;51.992;5.896;2022-10-16T16:49:09;8.30;;;3.72;;
56239;SDS011;42154;51.992;5.896;2022-10-16T16:51:37;7.03;;;3.90;;
56239;SDS011;42154;51.992;5.896;2022-10-16T16:54:03;13.00;;;5.72;;
56239;SDS011;42154;51.992;5.896;2022-10-16T16:56:30;12.13;;;7.00;;
56239;SDS011;42154;51.992;5.896;2022-10-16T16:58:56;11.13;;;7.30;;
56239;SDS011;42154;51.992;5.896;2022-10-16T17:01:23;11.85;;;6.53;;
56239;SDS011;42154;51.992;5.896;2022-10-16T17:03:52;12.65;;;4.55;;
56239;SDS011;42154;51.992;5.896;2022-10-16T17:06:19;9.40;;;3.60;;
56239;SDS011;42154;51.992;5.896;2022-10-16T17:08:47;8.50;;;2.55;;
56239;SDS011;42154;51.992;5.896;2022-10-16T17:11:24;8.73;;;3.10;;
56239;SDS011;42154;51.992;5.896;2022-10-16T17:13:52;7.68;;;2.42;;
56239;SDS011;42154;51.992;5.896;2022-10-16T17:16:21;8.77;;;2.60;;
56239;SDS011;42154;51.992;5.896;2022-10-16T17:18:48;8.32;;;2.30;;
56239;SDS011;42154;51.992;5.896;2022-10-16T17:21:15;9.30;;;2.33;;
56239;SDS011;42154;51.992;5.896;2022-10-16T17:23:40;6.65;;;2.13;;
56239;SDS011;42154;51.992;5.896;2022-10-16T17:26:10;7.20;;;2.22;;
56239;SDS011;42154;51.992;5.896;2022-10-16T17:28:38;6.78;;;2.28;;